Time;durP1;ratioP1;P1;durP2;ratioP2;P2;SDS_P1;SDS_P2;PMS_P1;PMS_P2;Temp;Humidity;BMP_temperature;BMP_pressure;BME280_temperature;BME280_humidity;BME280_pressure;Samples;Min_cycle;Max_cycle;Signal;HPM_P1;HPM_P2
2023/03/05 00:00:51;;;;;;;6.10;1.23;;;;;;;;;;5043781;28;20545;-68
2023/03/05 00:03:19;;;;;;;11.65;2.00;;;;;;;;;;5041173;28;20118;-67
2023/03/05 00:05:46;;;;;;;10.52;1.60;;;;;;;;;;5044016;28;20106;-68
2023/03/05 00:08:12;;;;;;;12.95;1.80;;;;;;;;;;5023670;28;20041;-68
2023/03/05 00:10:39;;;;;;;11.07;1.70;;;;;;;;;;5021607;28;20112;-67
2023/03/05 00:13:07;;;;;;;12.80;2.40;;;;;;;;;;5021426;28;20030;-67
2023/03/05 00:15:32;;;;;;;15.40;1.77;;;;;;;;;;5022627;28;20029;-68
2023/03/05 00:17:58;;;;;;;14.55;2.22;;;;;;;;;;5023824;28;20397;-67
2023/03/05 00:20:23;;;;;;;18.70;1.70;;;;;;;;;;5023521;28;20033;-67
2023/03/05 00:22:48;;;;;;;12.75;1.80;;;;;;;;;;5021660;28;20191;-67
2023/03/05 00:25:16;;;;;;;9.20;1.63;;;;;;;;;;5021429;28;20124;-67
2023/03/05 00:27:41;;;;;;;12.65;2.00;;;;;;;;;;5023035;28;20562;-67
2023/03/05 00:30:07;;;;;;;15.70;2.17;;;;;;;;;;5022952;28;20041;-66
2023/03/05 00:32:35;;;;;;;15.90;1.85;;;;;;;;;;5021664;28;20153;-66
2023/03/05 00:35:00;;;;;;;14.93;1.80;;;;;;;;;;5022789;28;20049;-65
2023/03/05 00:37:25;;;;;;;15.48;2.17;;;;;;;;;;5022860;28;20033;-65
2023/03/05 00:39:51;;;;;;;17.70;2.78;;;;;;;;;;5022400;28;20478;-66
2023/03/05 00:42:16;;;;;;;7.15;1.33;;;;;;;;;;5021289;28;20471;-66
2023/03/05 00:44:44;;;;;;;14.82;1.98;;;;;;;;;;4992186;28;20038;-67
2023/03/05 00:47:09;;;;;;;7.28;1.50;;;;;;;;;;5008260;28;20044;-67
2023/03/05 00:49:34;;;;;;;14.00;2.00;;;;;;;;;;5022253;28;20124;-67
2023/03/05 00:51:59;;;;;;;16.13;2.20;;;;;;;;;;5022679;28;20113;-67
2023/03/05 00:54:25;;;;;;;12.48;2.13;;;;;;;;;;5022506;28;20044;-67
2023/03/05 00:56:50;;;;;;;16.85;1.60;;;;;;;;;;5004975;28;20026;-68
2023/03/05 00:59:15;;;;;;;13.00;1.50;;;;;;;;;;5020653;28;20404;-68
2023/03/05 01:01:41;;;;;;;13.40;1.80;;;;;;;;;;5022145;28;20030;-68
2023/03/05 01:04:13;;;;;;;8.80;1.40;;;;;;;;;;5020723;28;20054;-67
2023/03/05 01:06:41;;;;;;;8.48;1.73;;;;;;;;;;5022160;28;20075;-67
2023/03/05 01:09:06;;;;;;;9.52;1.30;;;;;;;;;;5020181;28;20113;-67
2023/03/05 01:11:32;;;;;;;9.43;1.30;;;;;;;;;;5022556;28;20112;-67
2023/03/05 01:13:57;;;;;;;9.52;1.30;;;;;;;;;;5022961;28;20173;-68
2023/03/05 01:16:22;;;;;;;15.85;1.70;;;;;;;;;;5021273;28;20026;-67
2023/03/05 01:18:47;;;;;;;13.32;1.83;;;;;;;;;;5023373;28;20048;-68
2023/03/05 01:21:15;;;;;;;19.50;1.88;;;;;;;;;;5020396;28;20091;-68
2023/03/05 01:23:43;;;;;;;11.82;1.98;;;;;;;;;;5019827;28;20414;-68
2023/03/05 01:26:08;;;;;;;16.33;1.60;;;;;;;;;;5022977;28;20192;-67
2023/03/05 01:28:33;;;;;;;13.90;1.65;;;;;;;;;;5022341;28;20113;-67
2023/03/05 01:30:59;;;;;;;9.68;1.60;;;;;;;;;;5020910;28;20046;-68
2023/03/05 01:33:26;;;;;;;11.52;1.63;;;;;;;;;;5022079;28;20060;-68
2023/03/05 01:35:52;;;;;;;12.35;1.85;;;;;;;;;;5022531;28;20053;-69
2023/03/05 01:38:17;;;;;;;12.75;1.80;;;;;;;;;;5020190;28;20026;-69
2023/03/05 01:40:42;;;;;;;15.35;2.33;;;;;;;;;;5023051;28;20038;-69
2023/03/05 01:43:08;;;;;;;8.73;1.85;;;;;;;;;;5020454;28;20034;-67
2023/03/05 01:45:33;;;;;;;10.10;1.70;;;;;;;;;;5005763;28;20135;-68
2023/03/05 01:47:58;;;;;;;18.83;2.15;;;;;;;;;;5020331;28;20050;-67
2023/03/05 01:50:24;;;;;;;16.48;2.78;;;;;;;;;;5022477;28;20594;-67
2023/03/05 01:52:53;;;;;;;9.50;1.10;;;;;;;;;;5021804;28;20033;-67
2023/03/05 01:55:21;;;;;;;5.50;1.13;;;;;;;;;;5020815;28;20032;-68
2023/03/05 01:57:54;;;;;;;8.70;1.25;;;;;;;;;;5020302;28;20181;-69
2023/03/05 02:00:52;;;;;;;13.18;1.38;;;;;;;;;;5022049;28;20038;-69
2023/03/05 02:03:18;;;;;;;11.32;2.20;;;;;;;;;;4976616;28;20125;-68
2023/03/05 02:05:43;;;;;;;11.85;1.30;;;;;;;;;;5022296;28;20124;-68
2023/03/05 02:08:12;;;;;;;8.32;1.50;;;;;;;;;;5021954;28;20034;-68
2023/03/05 02:10:39;;;;;;;7.80;1.60;;;;;;;;;;5020381;28;20041;-67
2023/03/05 02:13:06;;;;;;;14.27;1.50;;;;;;;;;;5020335;28;20053;-67
2023/03/05 02:15:35;;;;;;;15.18;1.75;;;;;;;;;;5021916;28;20055;-66
2023/03/05 02:18:03;;;;;;;8.93;1.40;;;;;;;;;;5022320;28;20196;-67
2023/03/05 02:20:30;;;;;;;6.32;1.83;;;;;;;;;;5024617;28;20195;-69
2023/03/05 02:22:55;;;;;;;12.85;1.52;;;;;;;;;;5024878;28;20042;-68
2023/03/05 02:25:25;;;;;;;8.18;1.15;;;;;;;;;;5025949;28;20040;-68
2023/03/05 02:27:55;;;;;;;9.90;1.30;;;;;;;;;;5025013;28;20091;-67
2023/03/05 02:30:23;;;;;;;12.60;1.80;;;;;;;;;;5024833;28;20037;-67
2023/03/05 02:32:50;;;;;;;14.90;2.15;;;;;;;;;;5025287;28;20029;-68
2023/03/05 02:35:18;;;;;;;12.80;1.58;;;;;;;;;;5025227;28;20490;-67
2023/03/05 02:37:43;;;;;;;16.15;1.77;;;;;;;;;;5025657;28;20041;-68
2023/03/05 02:40:09;;;;;;;10.60;1.58;;;;;;;;;;5025969;28;20034;-68
2023/03/05 02:42:35;;;;;;;11.13;1.40;;;;;;;;;;5025040;28;20041;-68
2023/03/05 02:45:00;;;;;;;7.00;1.50;;;;;;;;;;5009993;28;20034;-69
2023/03/05 02:47:26;;;;;;;9.85;1.38;;;;;;;;;;5019043;28;20029;-67
2023/03/05 02:49:51;;;;;;;12.32;1.50;;;;;;;;;;5023279;28;20041;-67
2023/03/05 02:52:19;;;;;;;11.90;1.30;;;;;;;;;;5024759;28;20032;-68
2023/03/05 02:54:44;;;;;;;14.82;1.85;;;;;;;;;;5023417;28;20033;-67
2023/03/05 02:57:09;;;;;;;10.63;1.77;;;;;;;;;;5024502;28;20109;-68
2023/03/05 02:59:34;;;;;;;8.77;1.35;;;;;;;;;;5023364;28;20037;-68
2023/03/05 03:02:00;;;;;;;10.93;1.40;;;;;;;;;;5024540;28;20040;-68
2023/03/05 03:04:27;;;;;;;11.50;1.30;;;;;;;;;;5023335;28;20084;-69
2023/03/05 03:06:53;;;;;;;13.18;1.30;;;;;;;;;;5023242;28;20034;-67
2023/03/05 03:09:19;;;;;;;11.00;1.90;;;;;;;;;;5025214;28;20029;-68
2023/03/05 03:11:44;;;;;;;10.65;1.85;;;;;;;;;;5024611;28;20037;-67
2023/03/05 03:14:11;;;;;;;11.20;1.13;;;;;;;;;;5024604;28;20454;-67
2023/03/05 03:16:36;;;;;;;15.20;2.00;;;;;;;;;;5022689;28;20029;-68
2023/03/05 03:19:02;;;;;;;13.48;1.50;;;;;;;;;;5024429;28;20036;-67
2023/03/05 03:21:27;;;;;;;17.92;1.33;;;;;;;;;;5024061;28;20063;-67
2023/03/05 03:23:52;;;;;;;14.43;1.80;;;;;;;;;;5024221;28;20470;-68
2023/03/05 03:26:20;;;;;;;11.20;2.22;;;;;;;;;;5022530;28;20117;-67
2023/03/05 03:28:45;;;;;;;6.85;1.20;;;;;;;;;;5024603;28;20030;-67
2023/03/05 03:31:10;;;;;;;7.50;0.98;;;;;;;;;;5022100;28;20041;-68
2023/03/05 03:33:36;;;;;;;15.63;1.70;;;;;;;;;;5004576;28;20202;-67
2023/03/05 03:36:02;;;;;;;6.45;1.75;;;;;;;;;;4989138;28;20043;-68
2023/03/05 03:38:30;;;;;;;8.18;1.23;;;;;;;;;;5003851;28;20042;-68
2023/03/05 03:40:55;;;;;;;10.50;1.45;;;;;;;;;;5000470;28;20219;-68
2023/03/05 03:43:20;;;;;;;14.27;1.58;;;;;;;;;;4995344;28;20514;-67
2023/03/05 03:45:46;;;;;;;8.10;1.00;;;;;;;;;;5004725;28;20502;-67
2023/03/05 03:48:11;;;;;;;10.40;1.30;;;;;;;;;;5024222;28;20295;-70
2023/03/05 03:50:39;;;;;;;9.45;1.95;;;;;;;;;;5023593;28;20460;-67
2023/03/05 03:53:05;;;;;;;8.88;1.27;;;;;;;;;;5023095;28;20033;-67
2023/03/05 03:55:30;;;;;;;6.25;1.33;;;;;;;;;;5024117;28;20041;-67
2023/03/05 03:57:55;;;;;;;11.93;1.95;;;;;;;;;;5023982;28;20037;-67
2023/03/05 04:00:21;;;;;;;16.13;1.38;;;;;;;;;;5024415;28;20029;-68
2023/03/05 04:02:46;;;;;;;8.30;1.13;;;;;;;;;;5023891;28;20163;-68
2023/03/05 04:05:11;;;;;;;6.22;1.30;;;;;;;;;;5023986;28;20045;-68
2023/03/05 04:07:37;;;;;;;11.93;1.83;;;;;;;;;;5024328;28;20398;-68
2023/03/05 04:10:02;;;;;;;14.15;1.45;;;;;;;;;;5023847;28;20042;-68
2023/03/05 04:12:27;;;;;;;10.27;1.58;;;;;;;;;;5023600;28;20053;-68
2023/03/05 04:14:53;;;;;;;15.88;2.08;;;;;;;;;;5023601;28;20053;-69
2023/03/05 04:17:18;;;;;;;10.70;1.63;;;;;;;;;;5023116;28;20113;-69
2023/03/05 04:19:43;;;;;;;8.55;1.33;;;;;;;;;;5023609;28;20048;-69
2023/03/05 04:22:10;;;;;;;9.63;1.63;;;;;;;;;;5023303;28;20029;-69
2023/03/05 04:24:35;;;;;;;8.15;1.27;;;;;;;;;;5021440;28;20038;-69
2023/03/05 04:27:00;;;;;;;11.07;1.45;;;;;;;;;;5023318;28;20446;-68
2023/03/05 04:29:26;;;;;;;12.82;1.58;;;;;;;;;;5023089;28;20061;-69
2023/03/05 04:31:51;;;;;;;15.07;1.88;;;;;;;;;;5023575;28;20021;-69
2023/03/05 04:34:16;;;;;;;11.23;2.28;;;;;;;;;;5023453;28;20087;-69
2023/03/05 04:36:41;;;;;;;16.20;2.15;;;;;;;;;;5023681;28;20544;-68
2023/03/05 04:39:07;;;;;;;10.23;1.25;;;;;;;;;;5022563;28;20079;-68
2023/03/05 04:41:32;;;;;;;5.53;0.95;;;;;;;;;;5022420;28;20030;-69
2023/03/05 04:43:57;;;;;;;11.13;1.30;;;;;;;;;;5006841;28;20062;-68
2023/03/05 04:46:22;;;;;;;13.55;1.30;;;;;;;;;;5039694;28;20040;-68
2023/03/05 04:48:48;;;;;;;13.60;1.73;;;;;;;;;;5021352;28;20167;-70
2023/03/05 04:51:13;;;;;;;8.18;1.15;;;;;;;;;;5022167;28;20376;-68
2023/03/05 04:53:38;;;;;;;6.00;1.20;;;;;;;;;;5004969;28;20453;-69
2023/03/05 04:56:04;;;;;;;12.05;1.25;;;;;;;;;;5022505;28;20457;-70
2023/03/05 04:58:29;;;;;;;8.30;1.15;;;;;;;;;;5005805;28;20029;-68
2023/03/05 05:00:59;;;;;;;9.45;1.55;;;;;;;;;;5020515;28;20033;-68
2023/03/05 05:03:24;;;;;;;10.73;1.67;;;;;;;;;;5022032;28;20034;-69
2023/03/05 05:05:53;;;;;;;9.30;1.40;;;;;;;;;;5020966;28;20060;-69
2023/03/05 05:08:19;;;;;;;10.20;1.48;;;;;;;;;;5020007;28;20449;-68
2023/03/05 05:10:53;;;;;;;7.80;1.30;;;;;;;;;;5021101;28;20065;-68
2023/03/05 05:13:21;;;;;;;6.97;1.30;;;;;;;;;;5022350;28;20113;-69
2023/03/05 05:15:46;;;;;;;11.90;1.17;;;;;;;;;;5022369;28;20053;-69
2023/03/05 05:18:14;;;;;;;11.23;1.27;;;;;;;;;;5022441;28;20118;-68
2023/03/05 05:20:39;;;;;;;7.35;1.25;;;;;;;;;;5022642;28;20458;-68
2023/03/05 05:23:04;;;;;;;9.93;1.20;;;;;;;;;;5022704;28;20041;-68
2023/03/05 05:25:29;;;;;;;9.80;1.27;;;;;;;;;;5020797;28;20049;-67
2023/03/05 05:27:57;;;;;;;8.98;1.20;;;;;;;;;;5022496;28;20030;-68
2023/03/05 05:30:25;;;;;;;9.38;1.20;;;;;;;;;;5021834;28;20521;-69
2023/03/05 05:32:50;;;;;;;8.48;1.50;;;;;;;;;;5022797;28;20034;-70
2023/03/05 05:35:15;;;;;;;11.02;1.27;;;;;;;;;;5022405;28;20033;-67
2023/03/05 05:37:41;;;;;;;8.50;1.25;;;;;;;;;;5022646;28;20041;-69
2023/03/05 05:40:07;;;;;;;10.07;1.17;;;;;;;;;;5020605;28;20029;-69
2023/03/05 05:42:32;;;;;;;7.97;1.13;;;;;;;;;;5015090;28;20044;-70
2023/03/05 05:44:58;;;;;;;12.75;1.50;;;;;;;;;;5001054;28;20124;-70
2023/03/05 05:47:23;;;;;;;7.03;1.17;;;;;;;;;;5016631;28;20033;-70
2023/03/05 05:49:51;;;;;;;11.45;1.15;;;;;;;;;;5022710;28;20044;-70
2023/03/05 05:52:16;;;;;;;4.50;1.40;;;;;;;;;;5021269;28;20044;-70
2023/03/05 05:54:44;;;;;;;6.28;1.25;;;;;;;;;;5022935;28;20036;-69
2023/03/05 05:57:09;;;;;;;8.40;1.20;;;;;;;;;;5024805;28;20029;-70
2023/03/05 05:59:39;;;;;;;10.13;1.10;;;;;;;;;;5026030;28;20040;-70
2023/03/05 06:02:06;;;;;;;6.07;1.33;;;;;;;;;;5025420;28;20057;-71
2023/03/05 06:04:31;;;;;;;4.97;1.45;;;;;;;;;;5026297;28;20577;-70
2023/03/05 06:06:57;;;;;;;8.98;1.27;;;;;;;;;;5026115;28;20112;-70
2023/03/05 06:09:25;;;;;;;8.85;1.30;;;;;;;;;;5025775;28;20055;-71
2023/03/05 06:11:53;;;;;;;13.35;1.38;;;;;;;;;;5026051;28;20026;-71
2023/03/05 06:14:18;;;;;;;11.50;1.73;;;;;;;;;;5023835;28;20033;-71
2023/03/05 06:16:44;;;;;;;7.60;1.30;;;;;;;;;;5026565;28;20029;-70
2023/03/05 06:19:13;;;;;;;11.50;1.30;;;;;;;;;;5026102;28;20048;-71
2023/03/05 06:21:38;;;;;;;8.90;1.23;;;;;;;;;;5024313;28;20040;-69
2023/03/05 06:24:04;;;;;;;10.60;1.27;;;;;;;;;;5025346;28;20045;-69
2023/03/05 06:26:29;;;;;;;11.63;1.33;;;;;;;;;;5025524;28;20479;-70
2023/03/05 06:28:55;;;;;;;15.57;1.40;;;;;;;;;;5025622;28;20479;-69
2023/03/05 06:31:21;;;;;;;11.73;1.30;;;;;;;;;;5025316;28;20045;-69
2023/03/05 06:33:47;;;;;;;16.13;1.63;;;;;;;;;;5025470;28;20057;-71
2023/03/05 06:36:14;;;;;;;15.35;1.30;;;;;;;;;;5024900;28;20182;-70
2023/03/05 06:38:39;;;;;;;10.23;1.15;;;;;;;;;;5025884;28;20053;-70
2023/03/05 06:41:08;;;;;;;10.25;1.85;;;;;;;;;;5025198;28;20033;-69
2023/03/05 06:43:34;;;;;;;12.02;1.63;;;;;;;;;;5010815;28;20548;-69
2023/03/05 06:46:22;;;;;;;7.43;1.20;;;;;;;;;;5007740;28;20479;-69
2023/03/05 06:48:48;;;;;;;8.13;1.17;;;;;;;;;;5018093;28;20510;-70
2023/03/05 06:51:27;;;;;;;13.90;1.52;;;;;;;;;;5025083;28;20029;-70
2023/03/05 06:53:58;;;;;;;10.00;1.50;;;;;;;;;;5024776;28;20108;-72
2023/03/05 06:56:23;;;;;;;8.32;1.83;;;;;;;;;;5024519;28;20032;-72
2023/03/05 06:58:49;;;;;;;13.45;1.17;;;;;;;;;;5025156;28;20105;-71
2023/03/05 07:01:15;;;;;;;5.90;1.25;;;;;;;;;;5006522;28;20277;-71
2023/03/05 07:03:41;;;;;;;5.05;1.00;;;;;;;;;;5024908;28;20056;-71
2023/03/05 07:06:10;;;;;;;5.35;1.05;;;;;;;;;;5023830;28;20029;-69
2023/03/05 07:08:36;;;;;;;7.93;1.15;;;;;;;;;;5023123;28;20049;-69
2023/03/05 07:11:01;;;;;;;8.05;1.35;;;;;;;;;;5023951;28;20034;-71
2023/03/05 07:13:27;;;;;;;5.65;1.33;;;;;;;;;;5024662;28;20029;-71
2023/03/05 07:15:53;;;;;;;4.50;0.93;;;;;;;;;;5024615;28;20033;-72
2023/03/05 07:18:18;;;;;;;13.60;1.00;;;;;;;;;;5024323;28;20496;-70
2023/03/05 07:20:44;;;;;;;8.27;0.80;;;;;;;;;;5024750;28;20061;-73
2023/03/05 07:23:09;;;;;;;11.27;1.00;;;;;;;;;;5023882;28;20133;-72
2023/03/05 07:25:39;;;;;;;9.95;1.35;;;;;;;;;;5024273;28;20496;-72
2023/03/05 07:28:05;;;;;;;7.28;1.30;;;;;;;;;;5024180;28;20021;-73
2023/03/05 07:30:30;;;;;;;12.27;1.85;;;;;;;;;;5024593;28;20398;-73
2023/03/05 07:32:56;;;;;;;6.80;1.23;;;;;;;;;;5023328;28;20039;-72
2023/03/05 07:35:23;;;;;;;8.10;0.80;;;;;;;;;;5023060;28;20116;-72
2023/03/05 07:37:51;;;;;;;5.28;1.52;;;;;;;;;;5024833;28;20128;-71
2023/03/05 07:40:16;;;;;;;5.88;0.82;;;;;;;;;;5024268;28;20513;-72
2023/03/05 07:42:44;;;;;;;5.45;0.90;;;;;;;;;;5013814;28;20030;-71
2023/03/05 07:45:09;;;;;;;10.38;1.10;;;;;;;;;;5004029;28;20113;-71
2023/03/05 07:47:35;;;;;;;9.07;1.20;;;;;;;;;;5019635;28;20104;-72
2023/03/05 07:50:02;;;;;;;13.57;1.98;;;;;;;;;;5021823;28;20103;-72
2023/03/05 07:52:28;;;;;;;7.60;1.45;;;;;;;;;;5024153;28;20022;-72
2023/03/05 07:54:53;;;;;;;12.00;1.58;;;;;;;;;;5023025;28;20105;-73
2023/03/05 07:57:18;;;;;;;10.50;1.30;;;;;;;;;;5023543;28;20112;-73
2023/03/05 07:59:43;;;;;;;10.23;1.33;;;;;;;;;;5023670;28;20029;-73
2023/03/05 08:02:10;;;;;;;13.27;1.88;;;;;;;;;;5021969;28;20021;-73
2023/03/05 08:04:35;;;;;;;7.88;1.20;;;;;;;;;;5023647;28;20288;-72
2023/03/05 08:07:00;;;;;;;8.27;1.20;;;;;;;;;;5022263;28;20052;-72
2023/03/05 08:09:26;;;;;;;14.80;2.05;;;;;;;;;;5023120;28;20509;-71
2023/03/05 08:11:52;;;;;;;7.65;1.33;;;;;;;;;;5022234;28;20036;-72
2023/03/05 08:14:17;;;;;;;7.93;1.20;;;;;;;;;;5021391;28;20022;-71
2023/03/05 08:16:45;;;;;;;10.43;1.00;;;;;;;;;;5022588;28;20091;-73
2023/03/05 08:19:11;;;;;;;8.57;1.30;;;;;;;;;;5023195;28;20021;-70
2023/03/05 08:21:36;;;;;;;11.15;1.50;;;;;;;;;;5023212;28;20033;-70
2023/03/05 08:24:04;;;;;;;11.13;1.30;;;;;;;;;;5022465;28;20034;-70
2023/03/05 08:26:30;;;;;;;18.85;1.85;;;;;;;;;;5021912;28;20036;-69
2023/03/05 08:28:55;;;;;;;6.05;1.23;;;;;;;;;;5021258;28;20029;-70
2023/03/05 08:31:21;;;;;;;10.35;1.77;;;;;;;;;;5022914;28;20038;-69
2023/03/05 08:33:50;;;;;;;13.45;1.50;;;;;;;;;;5023660;28;20034;-69
2023/03/05 08:36:18;;;;;;;11.68;1.48;;;;;;;;;;5021726;28;20113;-69
2023/03/05 08:38:45;;;;;;;8.93;1.40;;;;;;;;;;5023249;28;20104;-69
2023/03/05 08:41:13;;;;;;;9.68;1.33;;;;;;;;;;5021032;28;20096;-70
2023/03/05 08:43:38;;;;;;;11.10;1.75;;;;;;;;;;5006420;28;20101;-70
2023/03/05 08:46:04;;;;;;;11.57;1.95;;;;;;;;;;5005682;28;20053;-70
2023/03/05 08:48:31;;;;;;;7.95;1.40;;;;;;;;;;5021580;28;20109;-71
2023/03/05 08:51:03;;;;;;;8.70;1.00;;;;;;;;;;5023032;28;20114;-71
2023/03/05 08:53:28;;;;;;;10.77;1.75;;;;;;;;;;5040727;28;20266;-71
2023/03/05 08:55:56;;;;;;;8.55;1.60;;;;;;;;;;5043120;28;20109;-71
2023/03/05 08:58:22;;;;;;;13.10;1.77;;;;;;;;;;5074923;28;20107;-71
2023/03/05 09:00:48;;;;;;;14.43;1.65;;;;;;;;;;5042082;28;20048;-73
2023/03/05 09:03:13;;;;;;;9.63;1.40;;;;;;;;;;5042484;28;20094;-73
2023/03/05 09:05:38;;;;;;;10.07;1.65;;;;;;;;;;5043031;28;20429;-73
2023/03/05 09:08:03;;;;;;;5.20;1.10;;;;;;;;;;5042356;28;20032;-72
2023/03/05 09:10:29;;;;;;;24.38;2.10;;;;;;;;;;5041314;28;20033;-73
2023/03/05 09:12:54;;;;;;;13.18;2.13;;;;;;;;;;5040916;28;20094;-73
2023/03/05 09:15:19;;;;;;;5.45;1.10;;;;;;;;;;5042622;28;20062;-72
2023/03/05 09:17:45;;;;;;;8.32;1.20;;;;;;;;;;5040467;28;20025;-72
2023/03/05 09:20:11;;;;;;;12.68;1.38;;;;;;;;;;5041168;28;20422;-72
2023/03/05 09:22:36;;;;;;;8.38;1.10;;;;;;;;;;5040548;28;20032;-72
2023/03/05 09:25:01;;;;;;;11.18;2.15;;;;;;;;;;5043077;28;20033;-73
2023/03/05 09:27:27;;;;;;;8.27;1.10;;;;;;;;;;5043341;28;20029;-72
2023/03/05 09:29:54;;;;;;;7.97;1.10;;;;;;;;;;5028382;28;20303;-74
2023/03/05 09:32:20;;;;;;;7.35;0.95;;;;;;;;;;5046595;28;20506;-72
2023/03/05 09:34:48;;;;;;;17.95;1.48;;;;;;;;;;5045150;28;20044;-72
2023/03/05 09:37:15;;;;;;;12.80;1.45;;;;;;;;;;5026578;28;20041;-73
2023/03/05 09:39:43;;;;;;;10.73;1.20;;;;;;;;;;5024858;28;20029;-72
2023/03/05 09:42:27;;;;;;;6.25;1.20;;;;;;;;;;5019337;28;20022;-73
2023/03/05 09:44:55;;;;;;;13.48;1.13;;;;;;;;;;5004846;28;20491;-74
2023/03/05 09:47:33;;;;;;;6.53;1.17;;;;;;;;;;5019907;28;20033;-73
2023/03/05 09:50:03;;;;;;;7.45;1.38;;;;;;;;;;5024627;28;20367;-74
2023/03/05 09:52:40;;;;;;;9.32;1.35;;;;;;;;;;5024270;28;20396;-74
2023/03/05 09:55:11;;;;;;;7.18;0.90;;;;;;;;;;5026668;28;20032;-74
2023/03/05 09:57:41;;;;;;;6.90;1.20;;;;;;;;;;5025941;28;20025;-73
2023/03/05 10:00:21;;;;;;;6.28;1.25;;;;;;;;;;5024385;28;20049;-73
2023/03/05 10:02:49;;;;;;;5.13;0.90;;;;;;;;;;5008243;28;20036;-73
2023/03/05 10:05:19;;;;;;;7.55;1.20;;;;;;;;;;5025731;28;20028;-73
2023/03/05 10:08:04;;;;;;;6.00;1.20;;;;;;;;;;5024159;28;20026;-74
2023/03/05 10:10:45;;;;;;;5.57;1.02;;;;;;;;;;5026192;28;20040;-74
2023/03/05 10:13:17;;;;;;;6.75;1.00;;;;;;;;;;5025987;28;20053;-74
2023/03/05 10:15:50;;;;;;;8.57;1.63;;;;;;;;;;5024132;28;20604;-74
2023/03/05 10:18:18;;;;;;;5.45;0.80;;;;;;;;;;5024016;28;20053;-75
2023/03/05 10:20:50;;;;;;;6.80;0.80;;;;;;;;;;5025686;28;20053;-74
2023/03/05 10:23:23;;;;;;;8.35;1.15;;;;;;;;;;5025998;28;20042;-76
2023/03/05 10:26:01;;;;;;;5.78;0.95;;;;;;;;;;5024499;28;20029;-74
2023/03/05 10:28:32;;;;;;;2.78;0.60;;;;;;;;;;5025704;28;20045;-74
2023/03/05 10:31:11;;;;;;;5.35;1.00;;;;;;;;;;5025598;28;20040;-74
2023/03/05 10:33:36;;;;;;;6.53;1.00;;;;;;;;;;5023664;28;20034;-74
2023/03/05 10:36:01;;;;;;;6.97;1.05;;;;;;;;;;5007180;28;20033;-74
2023/03/05 10:38:30;;;;;;;6.57;1.02;;;;;;;;;;5023382;28;20032;-74
2023/03/05 10:40:56;;;;;;;4.10;0.95;;;;;;;;;;5024368;28;20387;-73
2023/03/05 10:43:28;;;;;;;6.55;0.88;;;;;;;;;;5009424;28;20026;-74
2023/03/05 10:45:53;;;;;;;5.37;1.30;;;;;;;;;;5007155;28;20105;-75
2023/03/05 10:48:24;;;;;;;8.40;1.08;;;;;;;;;;5024944;28;20280;-73
2023/03/05 10:50:52;;;;;;;7.32;1.15;;;;;;;;;;5025678;28;20237;-74
2023/03/05 10:53:22;;;;;;;4.30;0.70;;;;;;;;;;5045255;28;20052;-73
2023/03/05 10:55:50;;;;;;;10.52;1.42;;;;;;;;;;5044727;28;20445;-73
2023/03/05 10:58:16;;;;;;;6.65;1.23;;;;;;;;;;5044599;28;20187;-74
2023/03/05 11:01:01;;;;;;;6.15;0.95;;;;;;;;;;5045183;28;20120;-74
2023/03/05 11:03:44;;;;;;;6.80;1.30;;;;;;;;;;5036194;28;20299;-74
2023/03/05 11:06:11;;;;;;;11.68;1.90;;;;;;;;;;5044778;28;20078;-74
2023/03/05 11:08:36;;;;;;;6.88;1.10;;;;;;;;;;5042475;28;20033;-74
2023/03/05 11:11:01;;;;;;;5.88;1.20;;;;;;;;;;5045059;28;20609;-74
2023/03/05 11:13:27;;;;;;;6.35;1.30;;;;;;;;;;5043334;28;20040;-73
2023/03/05 11:15:59;;;;;;;4.63;0.75;;;;;;;;;;5044163;28;20033;-72
2023/03/05 11:18:25;;;;;;;7.25;1.08;;;;;;;;;;5042909;28;20041;-74
2023/03/05 11:20:50;;;;;;;4.93;1.30;;;;;;;;;;5044991;28;20397;-74
2023/03/05 11:23:17;;;;;;;5.38;1.10;;;;;;;;;;5044655;28;20048;-74
2023/03/05 11:26:05;;;;;;;9.13;0.85;;;;;;;;;;5044092;28;20037;-71
2023/03/05 11:28:38;;;;;;;5.05;0.80;;;;;;;;;;5042798;28;20033;-72
2023/03/05 11:31:06;;;;;;;7.40;0.90;;;;;;;;;;5044445;28;20429;-73
2023/03/05 11:33:31;;;;;;;5.28;0.82;;;;;;;;;;5042258;28;20053;-73
2023/03/05 11:36:11;;;;;;;6.20;0.90;;;;;;;;;;5026000;28;20059;-74
2023/03/05 11:38:50;;;;;;;2.88;0.73;;;;;;;;;;5044419;28;20465;-74
2023/03/05 11:41:17;;;;;;;7.63;1.10;;;;;;;;;;5042399;28;20378;-74
2023/03/05 11:43:43;;;;;;;3.47;0.90;;;;;;;;;;5024011;28;20033;-74
2023/03/05 11:46:11;;;;;;;4.85;1.00;;;;;;;;;;5022874;28;20065;-74
2023/03/05 11:48:38;;;;;;;3.97;1.00;;;;;;;;;;5024253;28;20110;-73
2023/03/05 11:51:10;;;;;;;5.75;1.00;;;;;;;;;;5024159;28;20048;-71
2023/03/05 11:53:35;;;;;;;4.95;0.85;;;;;;;;;;5023619;28;20030;-73
2023/03/05 11:56:12;;;;;;;7.38;1.15;;;;;;;;;;5038967;28;20076;-73
2023/03/05 11:58:45;;;;;;;3.35;1.02;;;;;;;;;;5023831;28;20037;-74
2023/03/05 12:01:14;;;;;;;7.53;1.58;;;;;;;;;;5023703;28;20033;-73
2023/03/05 12:03:40;;;;;;;7.38;1.38;;;;;;;;;;5054862;28;20033;-74
2023/03/05 12:06:11;;;;;;;7.53;1.30;;;;;;;;;;5023728;28;20033;-74
2023/03/05 12:08:39;;;;;;;5.00;1.10;;;;;;;;;;5023506;28;20021;-74
2023/03/05 12:11:22;;;;;;;8.77;1.40;;;;;;;;;;5023261;28;20060;-73
2023/03/05 12:13:50;;;;;;;7.55;1.60;;;;;;;;;;5022099;28;20106;-73
2023/03/05 12:16:32;;;;;;;6.68;1.60;;;;;;;;;;5023890;28;20052;-73
2023/03/05 12:18:57;;;;;;;4.00;1.13;;;;;;;;;;5022001;28;20072;-73
2023/03/05 12:21:31;;;;;;;8.93;2.08;;;;;;;;;;5022014;28;20066;-73
2023/03/05 12:24:00;;;;;;;9.65;1.80;;;;;;;;;;5023399;28;20528;-73
2023/03/05 12:26:45;;;;;;;7.18;1.40;;;;;;;;;;5023123;28;20109;-74
2023/03/05 12:29:28;;;;;;;5.63;0.98;;;;;;;;;;5023289;28;20029;-74
2023/03/05 12:31:54;;;;;;;7.50;1.38;;;;;;;;;;5023190;28;20221;-73
2023/03/05 12:34:38;;;;;;;6.20;1.00;;;;;;;;;;5021982;28;20034;-74
2023/03/05 12:37:20;;;;;;;6.15;1.30;;;;;;;;;;5023262;28;20058;-74
2023/03/05 12:39:51;;;;;;;6.60;1.10;;;;;;;;;;5021798;28;20478;-74
2023/03/05 12:42:28;;;;;;;5.53;1.08;;;;;;;;;;5023675;28;20045;-73
2023/03/05 12:45:13;;;;;;;9.20;1.55;;;;;;;;;;5004868;28;20029;-74
2023/03/05 12:47:40;;;;;;;9.70;1.20;;;;;;;;;;5037450;28;20029;-73
2023/03/05 12:50:31;;;;;;;9.60;1.55;;;;;;;;;;5041219;28;20041;-74
2023/03/05 12:53:03;;;;;;;7.15;1.80;;;;;;;;;;5037699;28;20036;-73
2023/03/05 12:55:33;;;;;;;7.47;1.45;;;;;;;;;;5041457;28;20489;-72
2023/03/05 12:58:03;;;;;;;6.82;1.80;;;;;;;;;;5042269;28;20520;-73
2023/03/05 13:00:42;;;;;;;7.63;1.55;;;;;;;;;;5042493;28;20025;-74
2023/03/05 13:03:10;;;;;;;9.52;1.45;;;;;;;;;;5074056;28;20497;-75
2023/03/05 13:05:36;;;;;;;4.53;0.93;;;;;;;;;;5024396;28;20025;-72
2023/03/05 13:08:15;;;;;;;5.60;0.80;;;;;;;;;;5041268;28;20025;-74
2023/03/05 13:10:41;;;;;;;6.75;1.10;;;;;;;;;;5039418;28;20037;-74
2023/03/05 13:13:13;;;;;;;3.08;0.82;;;;;;;;;;5041377;28;20036;-73
2023/03/05 13:15:38;;;;;;;5.30;1.02;;;;;;;;;;5042633;28;20025;-73
2023/03/05 13:18:07;;;;;;;7.10;1.20;;;;;;;;;;5024003;28;20032;-72
2023/03/05 13:20:39;;;;;;;7.25;1.27;;;;;;;;;;5042594;28;20021;-73
2023/03/05 13:23:13;;;;;;;7.70;1.20;;;;;;;;;;5042095;28;20535;-73
2023/03/05 13:25:39;;;;;;;10.80;1.35;;;;;;;;;;5022801;28;20033;-73
2023/03/05 13:28:14;;;;;;;7.57;0.95;;;;;;;;;;5042403;28;20483;-73
2023/03/05 13:30:44;;;;;;;7.40;1.17;;;;;;;;;;5042531;28;20041;-73
2023/03/05 13:33:15;;;;;;;10.38;1.40;;;;;;;;;;5042387;28;20029;-73
2023/03/05 13:35:43;;;;;;;8.15;1.27;;;;;;;;;;5042246;28;20106;-73
2023/03/05 13:38:19;;;;;;;9.68;1.20;;;;;;;;;;5040523;28;20100;-73
2023/03/05 13:40:59;;;;;;;8.93;1.10;;;;;;;;;;5040913;28;20025;-73
2023/03/05 13:43:24;;;;;;;4.50;1.08;;;;;;;;;;5003279;28;20026;-73
2023/03/05 13:45:57;;;;;;;5.97;1.52;;;;;;;;;;5002233;28;20080;-73
2023/03/05 13:48:24;;;;;;;5.75;1.05;;;;;;;;;;5022169;28;20398;-71
2023/03/05 13:50:53;;;;;;;9.15;1.40;;;;;;;;;;5022273;28;20045;-72
2023/03/05 13:53:21;;;;;;;9.02;1.67;;;;;;;;;;5021978;28;20037;-73
2023/03/05 13:55:48;;;;;;;8.23;1.00;;;;;;;;;;5020746;28;20033;-73
2023/03/05 13:58:32;;;;;;;5.43;1.10;;;;;;;;;;5022064;28;20029;-73
2023/03/05 14:01:22;;;;;;;6.13;1.15;;;;;;;;;;5021635;28;20486;-73
2023/03/05 14:03:49;;;;;;;4.75;1.20;;;;;;;;;;5012647;28;20029;-72
2023/03/05 14:06:18;;;;;;;5.57;1.00;;;;;;;;;;5021976;28;20037;-72
2023/03/05 14:08:47;;;;;;;5.80;1.10;;;;;;;;;;5021294;28;20065;-74
2023/03/05 14:11:15;;;;;;;4.13;0.90;;;;;;;;;;5020428;28;20037;-73
2023/03/05 14:13:41;;;;;;;4.50;0.95;;;;;;;;;;5020202;28;20034;-73
2023/03/05 14:16:09;;;;;;;4.72;1.17;;;;;;;;;;5023483;28;20034;-73
2023/03/05 14:18:35;;;;;;;5.05;0.90;;;;;;;;;;5025613;28;20112;-73
2023/03/05 14:21:02;;;;;;;7.13;1.20;;;;;;;;;;5025739;28;20033;-72
2023/03/05 14:23:36;;;;;;;4.93;1.10;;;;;;;;;;5023894;28;20045;-74
2023/03/05 14:26:11;;;;;;;4.07;0.75;;;;;;;;;;5043809;28;20175;-73
2023/03/05 14:28:36;;;;;;;6.88;1.15;;;;;;;;;;5043486;28;20041;-73
2023/03/05 14:31:13;;;;;;;6.60;0.98;;;;;;;;;;5045913;28;20037;-73
2023/03/05 14:33:40;;;;;;;3.92;1.00;;;;;;;;;;5043876;28;20155;-72
2023/03/05 14:36:06;;;;;;;7.85;1.20;;;;;;;;;;5045462;28;20029;-72
2023/03/05 14:38:33;;;;;;;9.45;1.10;;;;;;;;;;5043576;28;20375;-72
2023/03/05 14:41:17;;;;;;;8.40;1.02;;;;;;;;;;5043141;28;20039;-70
2023/03/05 14:43:42;;;;;;;8.85;1.15;;;;;;;;;;5023519;28;20033;-72